Time;durP1;ratioP1;P1;durP2;ratioP2;P2;SDS_P1;SDS_P2;PMS_P1;PMS_P2;Temp;Humidity;BMP_temperature;BMP_pressure;BME280_temperature;BME280_humidity;BME280_pressure;Samples;Min_cycle;Max_cycle;Signal;HPM_P1;HPM_P2
2021/07/06 00:02:15;;;;;;;2.00;0.93;;;17.40;90.10;;;;;;4939299;28;20044;-78
2021/07/06 00:04:43;;;;;;;1.50;0.70;;;17.50;89.70;;;;;;4958123;28;20221;-78
2021/07/06 00:07:11;;;;;;;2.67;0.63;;;17.50;89.60;;;;;;4942178;28;20331;-78
2021/07/06 00:09:42;;;;;;;2.53;0.60;;;17.40;89.60;;;;;;4942631;28;20075;-79
2021/07/06 00:12:10;;;;;;;5.28;1.13;;;17.40;89.80;;;;;;4936830;28;20052;-77
2021/07/06 00:14:37;;;;;;;2.42;0.95;;;17.30;89.90;;;;;;4941171;28;20078;-79
2021/07/06 00:17:06;;;;;;;5.20;1.90;;;17.40;89.90;;;;;;4955467;28;20370;-79
2021/07/06 00:19:33;;;;;;;3.50;0.82;;;17.30;90.00;;;;;;4956153;28;20086;-78
2021/07/06 00:22:06;;;;;;;1.35;0.60;;;17.10;90.40;;;;;;4943553;28;20086;-79
2021/07/06 00:24:34;;;;;;;2.40;0.85;;;17.10;90.60;;;;;;4941484;28;20063;-79
2021/07/06 00:27:02;;;;;;;1.75;0.75;;;17.00;90.70;;;;;;4939201;28;20043;-79
2021/07/06 00:29:34;;;;;;;8.70;1.42;;;17.00;90.80;;;;;;4955809;28;20119;-80
2021/07/06 00:32:03;;;;;;;2.13;0.80;;;16.90;90.90;;;;;;4940095;28;20354;-77
2021/07/06 00:34:30;;;;;;;2.03;0.70;;;16.80;91.00;;;;;;4954871;28;20355;-78
2021/07/06 00:36:57;;;;;;;3.72;1.00;;;16.80;91.10;;;;;;4957999;28;20056;-79
2021/07/06 00:39:24;;;;;;;2.53;0.80;;;16.70;91.10;;;;;;4943149;28;20085;-78
2021/07/06 00:41:53;;;;;;;6.72;0.88;;;16.70;91.40;;;;;;4946022;28;20086;-80
2021/07/06 00:44:22;;;;;;;4.32;0.75;;;16.60;91.40;;;;;;4948396;28;20048;-77
2021/07/06 00:46:49;;;;;;;2.10;0.63;;;16.60;91.50;;;;;;4943417;28;20072;-80
2021/07/06 00:49:17;;;;;;;2.70;0.60;;;16.60;91.50;;;;;;4956741;28;20482;-78
2021/07/06 00:51:44;;;;;;;1.92;0.77;;;16.60;91.40;;;;;;4941796;28;20056;-78
2021/07/06 00:54:11;;;;;;;3.83;0.80;;;16.50;91.50;;;;;;4954503;28;20062;-79
2021/07/06 00:56:39;;;;;;;2.25;0.95;;;16.50;91.60;;;;;;4946139;28;20051;-77
2021/07/06 00:59:09;;;;;;;2.35;0.80;;;16.50;91.60;;;;;;4956730;28;20047;-80
2021/07/06 01:01:36;;;;;;;1.83;0.82;;;16.50;91.60;;;;;;4938509;28;20071;-80
2021/07/06 01:04:04;;;;;;;2.25;0.80;;;16.50;91.40;;;;;;4943412;28;20099;-80
2021/07/06 01:06:35;;;;;;;1.25;0.60;;;16.50;91.50;;;;;;4955827;28;20056;-81
2021/07/06 01:09:02;;;;;;;3.53;0.77;;;16.50;91.50;;;;;;4940317;28;20381;-80
2021/07/06 01:11:29;;;;;;;3.88;1.08;;;16.50;91.40;;;;;;4935244;28;20107;-79
2021/07/06 01:13:57;;;;;;;2.28;1.13;;;16.50;91.50;;;;;;4937399;28;20331;-79
2021/07/06 01:16:25;;;;;;;4.63;0.60;;;16.50;91.40;;;;;;4940689;28;20039;-81
2021/07/06 01:18:53;;;;;;;1.52;0.75;;;16.50;91.40;;;;;;4936696;28;20052;-80
2021/07/06 01:21:20;;;;;;;2.20;0.90;;;16.40;91.40;;;;;;4936103;28;20102;-79
2021/07/06 01:23:48;;;;;;;4.25;0.80;;;16.40;91.50;;;;;;4948027;28;20083;-81
2021/07/06 01:26:16;;;;;;;1.70;0.70;;;16.40;91.60;;;;;;4953589;28;20043;-78
2021/07/06 01:28:43;;;;;;;1.27;0.57;;;16.30;91.70;;;;;;4937862;28;20055;-79
2021/07/06 01:31:10;;;;;;;1.60;0.57;;;16.30;91.70;;;;;;4933756;29;20374;-80
2021/07/06 01:33:38;;;;;;;3.38;1.00;;;16.30;91.70;;;;;;4942221;29;20056;-78
2021/07/06 01:36:07;;;;;;;2.38;0.73;;;16.30;91.80;;;;;;4941643;29;20231;-80
2021/07/06 01:38:36;;;;;;;1.88;0.95;;;16.30;91.90;;;;;;4940842;29;20086;-79
2021/07/06 01:41:05;;;;;;;1.52;0.90;;;16.30;91.80;;;;;;4930423;28;20031;-81
2021/07/06 01:43:34;;;;;;;1.40;0.82;;;16.20;91.90;;;;;;4939363;28;20100;-79
2021/07/06 01:46:02;;;;;;;2.75;0.60;;;16.20;92.00;;;;;;4931678;28;20123;-80
2021/07/06 01:48:30;;;;;;;2.78;1.10;;;16.20;92.10;;;;;;4939707;28;20074;-80
2021/07/06 01:50:58;;;;;;;1.58;0.85;;;16.30;92.20;;;;;;4952866;28;20111;-80
2021/07/06 01:53:25;;;;;;;2.10;0.60;;;16.30;91.90;;;;;;4937211;28;20125;-79
2021/07/06 01:55:54;;;;;;;2.65;0.80;;;16.20;91.80;;;;;;4956167;28;20130;-81
2021/07/06 01:58:25;;;;;;;2.45;0.85;;;16.20;91.80;;;;;;4945788;28;20243;-78
2021/07/06 02:00:56;;;;;;;1.42;0.73;;;16.20;91.80;;;;;;4928465;28;20060;-77
2021/07/06 02:03:23;;;;;;;;;;;16.10;91.90;;;;;;4939806;29;20048;-78
2021/07/06 02:05:55;;;;;;;3.17;1.50;;;16.10;92.10;;;;;;4950682;28;19926;-81
2021/07/06 02:08:22;;;;;;;3.95;0.82;;;16.00;92.10;;;;;;4932975;28;20094;-78
2021/07/06 02:10:52;;;;;;;4.10;0.98;;;16.10;92.10;;;;;;4940451;29;20051;-79
2021/07/06 02:13:21;;;;;;;1.38;0.82;;;16.00;91.90;;;;;;4951094;28;20097;-80
2021/07/06 02:15:51;;;;;;;8.48;0.90;;;16.00;92.30;;;;;;4933597;28;20110;-77
2021/07/06 02:18:20;;;;;;;4.20;0.90;;;16.10;92.10;;;;;;4925346;28;20051;-78
2021/07/06 02:20:48;;;;;;;3.73;1.10;;;16.20;91.90;;;;;;4944003;28;20055;-77
2021/07/06 02:23:16;;;;;;;2.58;1.10;;;16.10;91.80;;;;;;4932817;28;20039;-77
2021/07/06 02:25:43;;;;;;;1.65;0.65;;;16.20;91.80;;;;;;4928693;29;20495;-80
2021/07/06 02:28:10;;;;;;;1.38;0.73;;;16.20;91.60;;;;;;4932725;28;20349;-77
2021/07/06 02:30:38;;;;;;;2.45;0.88;;;16.10;91.90;;;;;;4946151;28;20078;-80
2021/07/06 02:33:07;;;;;;;5.03;1.55;;;16.20;91.60;;;;;;4948052;28;20461;-79
2021/07/06 02:35:34;;;;;;;1.98;0.95;;;16.10;91.70;;;;;;4953054;28;20279;-78
2021/07/06 02:38:02;;;;;;;1.77;0.70;;;16.10;91.70;;;;;;4939813;28;20110;-79
2021/07/06 02:40:30;;;;;;;3.50;0.80;;;16.10;91.60;;;;;;4938474;28;20392;-79
2021/07/06 02:42:59;;;;;;;2.17;0.98;;;16.20;91.90;;;;;;4941169;28;20386;-81
2021/07/06 02:45:27;;;;;;;3.90;0.88;;;16.30;91.50;;;;;;4942341;28;20479;-79
2021/07/06 02:47:55;;;;;;;3.13;1.77;;;16.20;91.30;;;;;;4933156;28;20047;-78
2021/07/06 02:50:25;;;;;;;4.53;1.40;;;16.10;91.40;;;;;;4948621;28;20046;-81
2021/07/06 02:52:53;;;;;;;1.58;0.70;;;16.00;91.60;;;;;;4930527;28;20060;-79
2021/07/06 02:55:20;;;;;;;2.88;0.70;;;16.00;91.70;;;;;;4949329;28;20102;-77
2021/07/06 02:57:52;;;;;;;2.60;0.80;;;16.00;91.70;;;;;;4948638;28;20061;-81
2021/07/06 03:00:22;;;;;;;2.40;0.80;;;15.90;91.70;;;;;;4930174;28;20236;-78
2021/07/06 03:02:50;;;;;;;;;;;15.80;91.70;;;;;;4932816;29;20056;-80
2021/07/06 03:05:19;;;;;;;1.70;0.73;;;15.90;91.60;;;;;;4929718;28;19919;-80
2021/07/06 03:07:48;;;;;;;4.87;0.80;;;15.80;91.80;;;;;;4934289;28;20055;-78
2021/07/06 03:10:19;;;;;;;1.70;0.80;;;15.80;91.90;;;;;;4952336;28;20122;-80
2021/07/06 03:12:47;;;;;;;2.10;1.00;;;15.80;91.80;;;;;;4935028;28;20275;-77
2021/07/06 03:15:17;;;;;;;1.63;0.70;;;15.70;91.60;;;;;;4940041;29;20103;-79
2021/07/06 03:17:46;;;;;;;1.17;0.65;;;15.70;91.70;;;;;;4951997;28;20132;-79
2021/07/06 03:20:16;;;;;;;7.50;2.47;;;15.60;92.10;;;;;;4938932;28;20055;-78
2021/07/06 03:22:44;;;;;;;6.72;1.30;;;15.60;92.20;;;;;;4952448;28;20075;-77
2021/07/06 03:25:14;;;;;;;3.22;1.25;;;15.50;92.20;;;;;;4954997;28;20044;-80
2021/07/06 03:27:42;;;;;;;1.77;0.80;;;15.60;92.50;;;;;;4941160;28;20920;-81
2021/07/06 03:30:12;;;;;;;2.25;1.08;;;15.60;92.60;;;;;;4953793;28;20059;-81
2021/07/06 03:32:39;;;;;;;2.05;0.90;;;15.70;92.50;;;;;;4954440;28;20122;-81
2021/07/06 03:35:08;;;;;;;1.92;0.95;;;15.70;92.60;;;;;;4936619;28;20343;-82
2021/07/06 03:37:35;;;;;;;6.38;0.93;;;15.70;92.10;;;;;;4930903;28;20090;-77
2021/07/06 03:40:04;;;;;;;4.18;1.00;;;15.70;92.20;;;;;;4952992;28;20114;-79
2021/07/06 03:42:33;;;;;;;1.15;0.73;;;16.00;92.40;;;;;;4954572;28;20377;-77
2021/07/06 03:45:00;;;;;;;4.30;0.82;;;16.00;91.50;;;;;;4936201;28;20209;-79
2021/07/06 03:47:28;;;;;;;2.60;1.25;;;16.00;91.20;;;;;;4940128;28;20124;-78
2021/07/06 03:49:55;;;;;;;2.15;0.80;;;16.00;91.00;;;;;;4955203;28;20117;-78
2021/07/06 03:52:22;;;;;;;1.98;1.35;;;15.80;91.20;;;;;;4939328;28;20094;-76
2021/07/06 03:54:49;;;;;;;2.17;1.10;;;15.70;91.50;;;;;;4944092;28;20055;-79
2021/07/06 03:57:28;;;;;;;2.85;1.10;;;15.70;91.50;;;;;;4953807;28;20048;-78
2021/07/06 03:59:57;;;;;;;2.30;1.00;;;15.60;91.80;;;;;;4949109;28;20048;-79
2021/07/06 04:02:24;;;;;;;7.22;1.30;;;15.70;92.20;;;;;;4947854;28;21039;-77
2021/07/06 04:04:51;;;;;;;3.55;0.93;;;15.70;92.10;;;;;;4941351;28;20062;-77
2021/07/06 04:07:19;;;;;;;2.17;1.10;;;15.70;92.10;;;;;;4937125;28;20059;-78
2021/07/06 04:09:46;;;;;;;4.38;1.42;;;15.70;92.20;;;;;;4938710;28;20044;-76
2021/07/06 04:12:15;;;;;;;1.63;1.05;;;15.90;92.30;;;;;;4942298;28;20402;-77
2021/07/06 04:14:42;;;;;;;1.98;1.10;;;15.90;91.80;;;;;;4935540;28;20240;-78
2021/07/06 04:17:11;;;;;;;1.77;0.90;;;15.90;92.10;;;;;;4937814;28;20083;-78
2021/07/06 04:19:39;;;;;;;2.22;1.00;;;16.10;91.90;;;;;;4950094;28;20421;-77
2021/07/06 04:22:07;;;;;;;3.90;0.98;;;16.20;91.60;;;;;;4948774;28;20295;-77
2021/07/06 04:24:34;;;;;;;2.17;0.80;;;16.30;91.30;;;;;;4934883;28;20097;-77
2021/07/06 04:27:03;;;;;;;1.58;0.90;;;16.50;91.00;;;;;;4933293;28;20119;-78
2021/07/06 04:29:30;;;;;;;1.73;0.80;;;16.60;90.30;;;;;;4935741;29;20274;-80
2021/07/06 04:31:57;;;;;;;1.05;0.70;;;16.80;89.30;;;;;;4953494;28;20304;-80
2021/07/06 04:34:26;;;;;;;3.30;1.15;;;17.00;89.10;;;;;;4951660;28;20071;-77
2021/07/06 04:36:53;;;;;;;1.77;0.80;;;17.10;88.00;;;;;;4943336;28;20131;-80
2021/07/06 04:39:21;;;;;;;1.63;0.60;;;17.20;87.90;;;;;;4950712;28;20266;-81
2021/07/06 04:41:49;;;;;;;1.98;1.00;;;17.30;87.10;;;;;;4945582;28;20067;-79
2021/07/06 04:44:16;;;;;;;3.38;0.60;;;17.40;86.70;;;;;;4935197;28;20051;-78
2021/07/06 04:46:44;;;;;;;1.13;0.80;;;17.60;86.00;;;;;;4932862;28;20052;-79
2021/07/06 04:49:11;;;;;;;3.42;1.20;;;17.50;85.60;;;;;;4947460;28;20110;-80
2021/07/06 04:51:40;;;;;;;1.60;0.90;;;17.60;85.60;;;;;;4946494;28;20441;-79
2021/07/06 04:54:07;;;;;;;1.73;0.88;;;17.60;85.40;;;;;;4935009;28;20112;-78
2021/07/06 04:56:34;;;;;;;2.05;1.02;;;17.70;85.00;;;;;;4931563;28;21197;-80
2021/07/06 04:59:03;;;;;;;1.30;0.70;;;17.70;85.30;;;;;;4950226;28;20397;-79
2021/07/06 05:01:33;;;;;;;3.78;0.90;;;17.70;85.30;;;;;;4932049;29;20094;-78
2021/07/06 05:04:00;;;;;;;1.08;0.70;;;17.90;84.80;;;;;;4937242;28;20044;-79
2021/07/06 05:06:34;;;;;;;2.20;0.75;;;17.90;84.20;;;;;;4949739;28;20378;-80
2021/07/06 05:09:03;;;;;;;1.70;1.02;;;18.00;84.20;;;;;;4953567;28;20079;-79
2021/07/06 05:11:31;;;;;;;3.45;0.75;;;18.10;83.80;;;;;;4947150;28;20363;-78
2021/07/06 05:13:58;;;;;;;1.38;0.75;;;18.20;83.70;;;;;;4951307;28;20106;-77
2021/07/06 05:16:25;;;;;;;3.90;0.80;;;18.20;83.30;;;;;;4949646;29;20054;-79
2021/07/06 05:18:52;;;;;;;1.33;0.80;;;18.20;83.30;;;;;;4951066;28;20075;-79
2021/07/06 05:21:20;;;;;;;0.95;0.60;;;18.20;83.30;;;;;;4947669;28;20060;-78
2021/07/06 05:23:47;;;;;;;1.50;0.68;;;18.20;82.80;;;;;;4948521;28;20146;-80
2021/07/06 05:26:16;;;;;;;2.42;0.85;;;18.30;82.80;;;;;;4934919;29;20052;-80
2021/07/06 05:28:43;;;;;;;5.15;0.90;;;18.40;82.40;;;;;;4936013;29;20047;-78
2021/07/06 05:31:10;;;;;;;2.10;0.90;;;18.50;82.10;;;;;;4936370;29;20043;-79
2021/07/06 05:33:43;;;;;;;1.65;0.90;;;18.60;82.00;;;;;;4937298;28;20071;-80
2021/07/06 05:36:11;;;;;;;1.83;1.02;;;19.00;80.40;;;;;;4951878;28;20097;-80
2021/07/06 05:38:38;;;;;;;1.88;0.90;;;19.10;79.80;;;;;;4935580;29;20055;-81
2021/07/06 05:41:08;;;;;;;2.17;0.80;;;19.00;79.80;;;;;;4934587;28;20050;-79
2021/07/06 05:43:36;;;;;;;1.92;0.95;;;19.00;80.10;;;;;;4952821;28;20070;-80
2021/07/06 05:46:04;;;;;;;5.15;1.17;;;18.80;81.00;;;;;;4952303;28;20086;-77
2021/07/06 05:48:31;;;;;;;1.30;0.70;;;18.70;81.00;;;;;;4936661;28;20047;-79
2021/07/06 05:50:58;;;;;;;3.22;0.95;;;18.80;80.90;;;;;;4938323;28;20059;-78
2021/07/06 05:53:25;;;;;;;3.08;0.70;;;19.00;79.80;;;;;;4936397;28;20070;-79
2021/07/06 05:55:52;;;;;;;2.95;0.95;;;19.30;79.10;;;;;;4935748;28;20106;-78
2021/07/06 05:58:20;;;;;;;1.55;0.80;;;19.40;78.60;;;;;;4940036;28;20106;-80
2021/07/06 06:00:48;;;;;;;1.52;0.70;;;19.60;79.20;;;;;;4950974;28;20075;-77
2021/07/06 06:03:15;;;;;;;3.25;0.93;;;19.50;78.60;;;;;;4937155;28;20055;-79
2021/07/06 06:05:43;;;;;;;2.92;1.02;;;19.60;78.40;;;;;;4937182;28;20172;-80
2021/07/06 06:08:12;;;;;;;3.17;0.70;;;19.80;77.60;;;;;;4940942;28;20052;-79
2021/07/06 06:10:39;;;;;;;2.70;1.07;;;19.80;77.40;;;;;;4935420;28;20075;-78
2021/07/06 06:13:06;;;;;;;1.10;0.75;;;20.10;77.30;;;;;;4951835;28;20130;-78
2021/07/06 06:15:34;;;;;;;3.53;0.90;;;20.40;76.30;;;;;;4955555;28;20048;-78
2021/07/06 06:18:02;;;;;;;1.83;0.75;;;20.60;75.80;;;;;;4934194;28;20071;-77
2021/07/06 06:20:31;;;;;;;2.13;0.70;;;20.90;75.60;;;;;;4952393;28;20059;-76
2021/07/06 06:22:58;;;;;;;1.55;0.75;;;21.00;74.70;;;;;;4937754;28;20047;-79
2021/07/06 06:25:25;;;;;;;1.83;0.93;;;20.80;75.20;;;;;;4933170;28;20106;-78
2021/07/06 06:27:53;;;;;;;2.75;0.90;;;20.70;74.60;;;;;;4947136;28;20039;-78
2021/07/06 06:30:21;;;;;;;2.13;0.82;;;20.80;75.30;;;;;;4947327;28;20126;-79
2021/07/06 06:32:48;;;;;;;5.10;0.93;;;20.90;75.30;;;;;;4933874;28;20093;-78
2021/07/06 06:35:17;;;;;;;1.13;0.65;;;20.90;74.50;;;;;;4946734;28;20053;-77
2021/07/06 06:37:44;;;;;;;1.95;0.85;;;20.90;74.80;;;;;;4934127;28;20070;-78
2021/07/06 06:40:12;;;;;;;4.88;0.95;;;21.00;74.20;;;;;;4935510;28;20082;-79
2021/07/06 06:42:39;;;;;;;1.58;0.95;;;21.10;74.20;;;;;;4954760;28;20083;-79
2021/07/06 06:45:09;;;;;;;2.60;1.23;;;21.00;73.60;;;;;;4935908;28;20051;-78
2021/07/06 06:47:36;;;;;;;;;;;20.90;74.00;;;;;;4948245;28;20055;-77
2021/07/06 06:50:04;;;;;;;1.05;0.60;;;20.90;74.30;;;;;;4934216;28;20165;-77
2021/07/06 06:52:33;;;;;;;0.95;0.50;;;20.90;74.60;;;;;;4936627;28;20085;-77
2021/07/06 06:55:00;;;;;;;1.40;0.80;;;21.10;74.00;;;;;;4934258;28;20075;-79
2021/07/06 06:57:29;;;;;;;1.50;0.80;;;21.20;73.80;;;;;;4930680;28;20351;-79
2021/07/06 06:59:56;;;;;;;1.67;0.80;;;21.20;73.80;;;;;;4934549;28;20047;-80
2021/07/06 07:02:28;;;;;;;3.00;0.77;;;21.40;73.60;;;;;;4932077;28;20367;-81
2021/07/06 07:04:56;;;;;;;0.98;0.63;;;21.50;73.30;;;;;;4934483;29;20390;-80
2021/07/06 07:07:24;;;;;;;1.92;0.60;;;21.60;72.30;;;;;;4934603;28;20111;-78
2021/07/06 07:09:53;;;;;;;1.88;1.00;;;21.90;72.10;;;;;;4948321;28;20354;-80
2021/07/06 07:12:20;;;;;;;1.92;0.70;;;22.20;71.60;;;;;;4949615;28;20267;-79
2021/07/06 07:14:49;;;;;;;1.50;0.80;;;22.30;70.50;;;;;;4947618;28;20051;-81
2021/07/06 07:17:17;;;;;;;2.05;0.80;;;22.40;71.10;;;;;;4941121;28;20059;-79
2021/07/06 07:19:45;;;;;;;2.53;0.88;;;22.50;70.50;;;;;;4933580;28;20047;-80
2021/07/06 07:22:13;;;;;;;3.10;0.73;;;22.50;70.70;;;;;;4936147;28;20518;-78
2021/07/06 07:24:41;;;;;;;1.48;0.70;;;22.60;70.60;;;;;;4934677;28;20043;-80
2021/07/06 07:27:09;;;;;;;2.25;0.75;;;22.70;69.40;;;;;;4935393;28;20110;-81
2021/07/06 07:29:37;;;;;;;5.53;1.42;;;23.00;68.80;;;;;;4936193;28;20075;-79
2021/07/06 07:32:05;;;;;;;2.92;1.13;;;23.30;68.50;;;;;;4949994;28;20052;-79
2021/07/06 07:34:33;;;;;;;5.35;0.95;;;23.40;68.60;;;;;;4950431;28;20051;-80
2021/07/06 07:37:00;;;;;;;1.80;0.80;;;23.60;68.20;;;;;;4953422;28;20354;-79
2021/07/06 07:39:29;;;;;;;2.65;1.00;;;23.60;67.60;;;;;;4932673;28;20131;-79
2021/07/06 07:41:56;;;;;;;1.70;0.70;;;23.80;66.70;;;;;;4933662;28;20062;-79
2021/07/06 07:44:24;;;;;;;1.77;0.85;;;23.80;67.10;;;;;;4943548;28;20040;-78
2021/07/06 07:46:52;;;;;;;1.55;0.80;;;23.80;65.30;;;;;;4934078;28;20339;-78
2021/07/06 07:49:19;;;;;;;1.35;0.70;;;23.90;65.10;;;;;;4935311;28;20058;-80
2021/07/06 07:51:47;;;;;;;2.35;1.13;;;24.00;65.40;;;;;;4948937;28;20055;-81
2021/07/06 07:54:14;;;;;;;2.58;0.80;;;24.00;64.90;;;;;;4931451;28;20056;-78
2021/07/06 07:56:41;;;;;;;1.77;0.80;;;23.90;65.10;;;;;;4934013;28;20066;-80
2021/07/06 07:59:09;;;;;;;2.83;0.70;;;24.10;64.70;;;;;;4934218;28;20067;-79
2021/07/06 08:01:38;;;;;;;1.20;0.60;;;24.40;64.70;;;;;;4929695;28;20055;-82
2021/07/06 08:04:06;;;;;;;;;;;24.50;63.60;;;;;;4935895;28;20044;-79
2021/07/06 08:06:34;;;;;;;3.03;1.20;;;24.60;63.60;;;;;;4934394;28;20148;-80
2021/07/06 08:09:01;;;;;;;1.52;0.70;;;24.30;64.10;;;;;;4952788;28;20105;-80
2021/07/06 08:11:30;;;;;;;1.33;0.77;;;24.20;63.60;;;;;;4952258;28;20450;-79
2021/07/06 08:13:58;;;;;;;1.38;0.75;;;24.10;63.90;;;;;;4952338;28;20048;-79
2021/07/06 08:16:25;;;;;;;3.83;0.80;;;24.40;63.50;;;;;;4953382;28;20044;-79
2021/07/06 08:18:53;;;;;;;2.28;1.02;;;24.80;63.00;;;;;;4955761;28;20077;-79
2021/07/06 08:21:20;;;;;;;0.73;0.57;;;25.10;62.30;;;;;;4937925;28;20063;-80
2021/07/06 08:23:48;;;;;;;1.88;0.70;;;25.20;62.30;;;;;;4933992;28;20142;-82
2021/07/06 08:26:17;;;;;;;3.28;0.80;;;25.10;61.80;;;;;;4937881;28;20259;-80
2021/07/06 08:28:46;;;;;;;1.50;0.65;;;25.10;63.10;;;;;;4937888;28;20052;-78
2021/07/06 08:31:13;;;;;;;1.95;0.88;;;25.30;63.00;;;;;;4951645;28;20344;-81
2021/07/06 08:33:40;;;;;;;1.58;1.08;;;25.20;63.30;;;;;;4934402;28;20059;-80
2021/07/06 08:36:10;;;;;;;3.58;0.75;;;24.90;63.60;;;;;;4953567;28;20052;-78
2021/07/06 08:38:40;;;;;;;;;;;24.70;64.40;;;;;;4935051;28;20107;-79
2021/07/06 08:41:07;;;;;;;4.05;0.80;;;24.30;65.50;;;;;;4951633;28;19926;-79
2021/07/06 08:43:36;;;;;;;2.75;0.60;;;24.00;67.10;;;;;;4935756;28;20251;-81
2021/07/06 08:46:04;;;;;;;1.95;0.90;;;23.60;68.50;;;;;;4936333;28;20044;-79
2021/07/06 08:48:35;;;;;;;3.35;1.00;;;23.40;70.50;;;;;;4949786;28;20393;-80
2021/07/06 08:51:04;;;;;;;3.08;1.23;;;22.60;83.30;;;;;;4937235;28;20066;-80
2021/07/06 08:53:39;;;;;;;3.03;0.95;;;21.40;88.90;;;;;;4937365;28;20439;-81
2021/07/06 08:56:06;;;;;;;2.67;1.05;;;20.10;89.30;;;;;;4935199;28;20387;-79
2021/07/06 08:58:33;;;;;;;2.92;1.25;;;19.50;93.90;;;;;;4934497;28;20048;-77
2021/07/06 09:01:00;;;;;;;3.20;0.82;;;19.50;94.80;;;;;;4932044;28;20051;-78
2021/07/06 09:03:54;;;;;;;2.95;0.80;;;19.50;95.20;;;;;;4933598;28;20064;-78
2021/07/06 09:06:21;;;;;;;3.15;0.93;;;19.70;95.60;;;;;;4938494;28;20230;-79
2021/07/06 09:08:53;;;;;;;3.40;1.10;;;19.50;95.70;;;;;;4953432;28;20067;-81
2021/07/06 09:11:22;;;;;;;4.80;1.60;;;19.30;95.60;;;;;;4939317;28;20102;-81
2021/07/06 09:13:50;;;;;;;2.80;0.93;;;19.40;96.10;;;;;;4954990;28;20062;-79
2021/07/06 09:16:22;;;;;;;3.25;1.25;;;19.30;96.10;;;;;;4937224;28;20047;-81
2021/07/06 09:18:49;;;;;;;3.25;1.00;;;19.40;96.30;;;;;;4951567;28;20255;-80
2021/07/06 09:21:17;;;;;;;3.25;1.40;;;19.30;96.30;;;;;;4954821;28;20056;-79
2021/07/06 09:23:46;;;;;;;3.13;1.35;;;19.30;96.30;;;;;;4935517;28;20378;-81
2021/07/06 09:26:22;;;;;;;2.47;1.17;;;19.40;96.50;;;;;;4946531;28;20047;-81
2021/07/06 09:28:51;;;;;;;2.50;1.02;;;19.40;96.50;;;;;;4937382;28;20050;-81
2021/07/06 09:31:28;;;;;;;4.32;1.30;;;19.40;96.40;;;;;;4938304;28;20063;-81
2021/07/06 09:34:02;;;;;;;1.80;1.05;;;19.40;96.50;;;;;;4944284;28;20273;-79
2021/07/06 09:36:42;;;;;;;4.00;1.02;;;19.40;96.30;;;;;;4938340;28;20452;-81
2021/07/06 09:39:17;;;;;;;3.55;1.25;;;19.30;96.20;;;;;;4936117;28;20311;-80
2021/07/06 09:41:59;;;;;;;2.47;1.38;;;19.30;96.20;;;;;;4949851;28;20052;-80
2021/07/06 09:44:31;;;;;;;2.78;1.67;;;19.20;95.80;;;;;;4934695;28;20075;-81
2021/07/06 09:47:04;;;;;;;3.42;1.50;;;19.10;95.70;;;;;;4954835;28;20051;-80
2021/07/06 09:49:35;;;;;;;3.90;1.70;;;18.90;95.60;;;;;;4950974;28;20055;-82
2021/07/06 09:52:10;;;;;;;;;;;18.70;95.60;;;;;;4938563;28;20627;-80
2021/07/06 09:54:40;;;;;;;4.43;1.50;;;18.70;95.90;;;;;;4949621;28;19919;-79
2021/07/06 09:57:20;;;;;;;3.08;1.67;;;18.70;96.00;;;;;;4947715;28;20083;-81
2021/07/06 10:00:03;;;;;;;3.70;1.60;;;18.80;95.90;;;;;;4952344;28;20047;-79
2021/07/06 10:02:40;;;;;;;5.93;1.88;;;18.90;95.60;;;;;;4934272;29;20062;-81
2021/07/06 10:05:10;;;;;;;6.68;1.92;;;18.90;95.80;;;;;;4930543;28;20066;-80
2021/07/06 10:07:39;;;;;;;3.33;1.67;;;19.10;96.10;;;;;;4950712;28;20055;-80
2021/07/06 10:10:12;;;;;;;3.30;1.65;;;19.10;95.90;;;;;;4932517;29;20044;-81
2021/07/06 10:12:42;;;;;;;3.75;1.67;;;19.20;95.70;;;;;;4936413;29;20092;-80
2021/07/06 10:15:10;;;;;;;;;;;19.20;95.60;;;;;;4934250;28;20056;-80
2021/07/06 10:17:39;;;;;;;2.53;1.13;;;19.30;95.00;;;;;;4932478;28;21362;-79
2021/07/06 10:20:10;;;;;;;4.80;1.75;;;19.30;95.30;;;;;;4936412;28;20066;-77
2021/07/06 10:22:38;;;;;;;4.25;1.92;;;19.40;95.20;;;;;;4941167;28;20055;-77
2021/07/06 10:25:09;;;;;;;5.32;1.77;;;19.60;95.30;;;;;;4928460;28;20063;-77
2021/07/06 10:27:39;;;;;;;2.80;1.10;;;19.90;95.40;;;;;;4934533;28;20044;-78
2021/07/06 10:30:12;;;;;;;5.45;1.05;;;19.90;94.90;;;;;;4933029;28;20079;-79
2021/07/06 10:32:41;;;;;;;1.83;0.95;;;20.10;94.70;;;;;;4929658;28;20059;-78
2021/07/06 10:35:11;;;;;;;3.00;1.02;;;20.20;94.10;;;;;;4930984;28;20113;-78
2021/07/06 10:37:39;;;;;;;2.47;0.75;;;20.40;93.70;;;;;;4946157;28;20036;-80
2021/07/06 10:40:30;;;;;;;3.60;1.17;;;20.30;93.80;;;;;;4934839;28;20074;-78
2021/07/06 10:42:57;;;;;;;2.88;1.08;;;20.30;93.70;;;;;;4941762;28;20371;-77
2021/07/06 10:45:34;;;;;;;6.55;1.05;;;20.20;93.90;;;;;;4931216;28;20280;-78
2021/07/06 10:48:01;;;;;;;2.55;1.05;;;20.10;94.10;;;;;;4935175;28;20055;-78
2021/07/06 10:50:53;;;;;;;2.33;0.88;;;20.20;94.60;;;;;;4933644;28;20113;-77
2021/07/06 10:53:23;;;;;;;3.45;1.15;;;20.20;94.30;;;;;;4936848;28;22144;-78
2021/07/06 10:56:06;;;;;;;3.00;1.00;;;20.20;93.10;;;;;;4937589;28;20360;-78
2021/07/06 10:58:50;;;;;;;2.55;0.85;;;20.40;93.70;;;;;;4944024;28;20293;-76
2021/07/06 11:02:00;;;;;;;2.85;1.00;;;20.50;93.50;;;;;;4941845;28;20074;-77
2021/07/06 11:05:10;;;;;;;1.50;0.57;;;20.50;92.60;;;;;;4950519;28;20056;-78
2021/07/06 11:07:58;;;;;;;2.58;0.90;;;20.60;91.50;;;;;;4927861;28;20259;-76
2021/07/06 11:10:39;;;;;;;1.13;0.60;;;20.40;90.80;;;;;;4937835;28;20059;-76
2021/07/06 11:13:31;;;;;;;2.50;0.90;;;20.60;91.20;;;;;;4932106;28;20102;-76
2021/07/06 11:16:03;;;;;;;2.30;0.65;;;20.50;90.90;;;;;;4934861;29;20101;-76
2021/07/06 11:18:44;;;;;;;1.52;0.60;;;20.60;90.30;;;;;;4953136;28;20055;-77
2021/07/06 11:21:33;;;;;;;3.05;0.52;;;20.70;88.80;;;;;;4934605;28;20058;-76
2021/07/06 11:24:18;;;;;;;1.50;0.75;;;21.00;88.60;;;;;;4928907;29;20078;-79
2021/07/06 11:26:46;;;;;;;2.42;0.77;;;21.10;87.60;;;;;;4935133;28;20051;-78
2021/07/06 11:29:25;;;;;;;1.55;0.55;;;21.10;86.40;;;;;;4935439;28;20119;-79
2021/07/06 11:32:12;;;;;;;1.50;0.73;;;21.10;87.20;;;;;;4933864;28;20075;-78
2021/07/06 11:34:42;;;;;;;2.15;0.60;;;20.90;86.40;;;;;;4940666;28;20044;-77
2021/07/06 11:37:11;;;;;;;2.35;0.60;;;21.10;87.00;;;;;;4939225;28;20253;-78
2021/07/06 11:39:39;;;;;;;3.13;0.88;;;21.30;85.50;;;;;;4933618;29;20120;-77
2021/07/06 11:42:06;;;;;;;2.15;0.75;;;21.50;84.00;;;;;;4934385;28;20071;-77
2021/07/06 11:44:36;;;;;;;2.30;0.65;;;21.60;82.70;;;;;;4933923;29;20284;-78
2021/07/06 11:47:11;;;;;;;1.92;0.70;;;21.60;85.10;;;;;;4952682;28;20235;-79
2021/07/06 11:49:40;;;;;;;2.30;0.60;;;21.80;85.90;;;;;;4941979;28;20078;-80
2021/07/06 11:52:09;;;;;;;;;;;21.90;84.30;;;;;;4940875;28;20090;-77
2021/07/06 11:54:36;;;;;;;2.80;0.55;;;22.00;82.80;;;;;;4950997;28;19962;-79
2021/07/06 11:57:05;;;;;;;2.38;0.50;;;21.90;82.60;;;;;;4934882;28;20335;-79
2021/07/06 11:59:33;;;;;;;0.93;0.45;;;21.90;81.70;;;;;;4939053;28;20075;-79
2021/07/06 12:02:06;;;;;;;1.45;0.60;;;21.50;81.50;;;;;;4933017;28;20388;-77
2021/07/06 12:04:34;;;;;;;5.95;0.80;;;21.40;83.40;;;;;;4940538;28;20052;-78
2021/07/06 12:07:10;;;;;;;1.17;0.50;;;21.60;83.30;;;;;;4948228;28;20082;-80
2021/07/06 12:09:38;;;;;;;1.67;0.70;;;21.50;81.00;;;;;;4939146;28;20090;-80
2021/07/06 12:12:11;;;;;;;1.73;0.65;;;21.60;82.00;;;;;;4937577;28;20067;-79
2021/07/06 12:14:45;;;;;;;1.95;0.75;;;21.60;81.40;;;;;;4939703;28;20382;-80
2021/07/06 12:17:12;;;;;;;2.15;0.73;;;21.90;80.60;;;;;;4941093;28;20062;-79
2021/07/06 12:19:40;;;;;;;1.05;0.60;;;22.20;80.10;;;;;;4940383;28;20054;-80
2021/07/06 12:22:09;;;;;;;3.13;0.50;;;22.80;79.30;;;;;;4934633;28;20326;-80
2021/07/06 12:24:37;;;;;;;1.85;0.77;;;23.10;77.30;;;;;;4935518;28;20052;-80
2021/07/06 12:27:08;;;;;;;1.70;0.60;;;23.00;76.00;;;;;;4951459;28;20051;-79
2021/07/06 12:29:37;;;;;;;1.45;0.60;;;23.50;74.40;;;;;;4940972;28;20374;-79
2021/07/06 12:32:11;;;;;;;1.80;0.77;;;23.20;74.60;;;;;;4934986;28;20090;-78
2021/07/06 12:34:42;;;;;;;2.85;0.65;;;22.90;77.20;;;;;;4953775;28;20336;-80
2021/07/06 12:37:14;;;;;;;2.60;0.90;;;22.60;76.80;;;;;;4938144;28;20081;-78
2021/07/06 12:39:43;;;;;;;3.20;0.70;;;22.10;78.00;;;;;;4939867;28;20093;-80
2021/07/06 12:42:14;;;;;;;0.60;0.40;;;22.10;78.10;;;;;;4938749;28;20055;-78
2021/07/06 12:44:43;;;;;;;2.00;0.70;;;21.70;77.50;;;;;;4943278;28;20055;-79
2021/07/06 12:47:23;;;;;;;3.05;0.50;;;21.70;79.30;;;;;;4947229;28;20031;-79
2021/07/06 12:49:54;;;;;;;4.65;1.00;;;21.60;78.60;;;;;;4942296;28;20106;-79
2021/07/06 12:52:25;;;;;;;1.63;0.80;;;21.70;78.90;;;;;;4938206;28;20265;-78
2021/07/06 12:54:54;;;;;;;1.48;0.80;;;21.60;79.10;;;;;;4956296;28;20048;-78
2021/07/06 12:57:29;;;;;;;1.90;0.82;;;21.60;79.30;;;;;;4946137;28;20414;-79
2021/07/06 13:00:15;;;;;;;3.17;0.70;;;21.50;80.30;;;;;;4941682;28;20137;-81
2021/07/06 13:02:47;;;;;;;1.60;0.80;;;21.20;80.90;;;;;;4937409;28;20047;-81